sensor_id;sensor_type;location;lat;lon;timestamp;pressure;altitude;pressure_sealevel;temperature;humidity
71424;BME280;59240;51.370;-0.486;2023-04-02T00:11:38;101775.91;;;8.75;97.89
71424;BME280;59240;51.370;-0.486;2023-04-02T00:14:25;101768.97;;;8.75;100.00
71424;BME280;59240;51.370;-0.486;2023-04-02T00:16:54;101766.38;;;8.66;96.69
71424;BME280;59240;51.370;-0.486;2023-04-02T00:19:32;101781.09;;;8.67;96.94
71424;BME280;59240;51.370;-0.486;2023-04-02T00:22:02;101770.72;;;8.66;98.21
71424;BME280;59240;51.370;-0.486;2023-04-02T00:24:32;101762.91;;;8.61;97.17
71424;BME280;59240;51.370;-0.486;2023-04-02T00:27:02;101743.81;;;8.50;98.18
71424;BME280;59240;51.370;-0.486;2023-04-02T00:29:34;101761.16;;;8.51;99.66
71424;BME280;59240;51.370;-0.486;2023-04-02T00:32:03;101773.25;;;8.55;96.57
71424;BME280;59240;51.370;-0.486;2023-04-02T00:34:37;101786.25;;;8.64;99.21
71424;BME280;59240;51.370;-0.486;2023-04-02T00:37:05;101788.00;;;8.61;98.24
71424;BME280;59240;51.370;-0.486;2023-04-02T00:39:41;101788.84;;;8.57;96.84
71424;BME280;59240;51.370;-0.486;2023-04-02T00:42:14;101758.53;;;8.39;97.44
71424;BME280;59240;51.370;-0.486;2023-04-02T00:44:49;101758.47;;;8.33;99.00
71424;BME280;59240;51.370;-0.486;2023-04-02T00:47:37;101761.94;;;8.35;99.29
71424;BME280;59240;51.370;-0.486;2023-04-02T00:50:18;101790.56;;;8.47;100.00
71424;BME280;59240;51.370;-0.486;2023-04-02T00:53:16;101745.44;;;8.17;98.63
71424;BME280;59240;51.370;-0.486;2023-04-02T00:55:46;101827.81;;;8.63;98.40
71424;BME280;59240;51.370;-0.486;2023-04-02T00:58:34;101790.50;;;8.32;99.03
71424;BME280;59240;51.370;-0.486;2023-04-02T01:01:22;101799.16;;;8.31;97.65
71424;BME280;59240;51.370;-0.486;2023-04-02T01:03:55;101778.31;;;8.18;98.49
71424;BME280;59240;51.370;-0.486;2023-04-02T01:06:35;101793.91;;;8.28;99.99
71424;BME280;59240;51.370;-0.486;2023-04-02T01:12:26;101823.44;;;8.40;100.00
71424;BME280;59240;51.370;-0.486;2023-04-02T01:23:13;101823.34;;;8.30;97.91
71424;BME280;59240;51.370;-0.486;2023-04-02T01:25:53;101831.22;;;8.39;100.00
71424;BME280;59240;51.370;-0.486;2023-04-02T01:28:42;101826.81;;;8.29;99.10
71424;BME280;59240;51.370;-0.486;2023-04-02T01:31:10;101815.53;;;8.20;96.48
71424;BME280;59240;51.370;-0.486;2023-04-02T01:33:40;101833.72;;;8.30;98.60
71424;BME280;59240;51.370;-0.486;2023-04-02T01:36:25;101848.50;;;8.35;100.00
71424;BME280;59240;51.370;-0.486;2023-04-02T01:39:36;101885.81;;;8.54;97.49
71424;BME280;59240;51.370;-0.486;2023-04-02T01:42:20;101889.28;;;8.53;100.00
71424;BME280;59240;51.370;-0.486;2023-04-02T01:45:03;101865.75;;;8.24;94.06
71424;BME280;59240;51.370;-0.486;2023-04-02T01:47:30;101825.88;;;8.13;97.21
71424;BME280;59240;51.370;-0.486;2023-04-02T01:52:44;101845.81;;;8.21;98.42
71424;BME280;59240;51.370;-0.486;2023-04-02T01:55:14;101836.25;;;8.14;98.92
71424;BME280;59240;51.370;-0.486;2023-04-02T01:57:45;101872.69;;;8.33;98.83
71424;BME280;59240;51.370;-0.486;2023-04-02T02:00:15;101870.09;;;8.31;98.77
71424;BME280;59240;51.370;-0.486;2023-04-02T02:02:46;101902.19;;;8.41;96.81
71424;BME280;59240;51.370;-0.486;2023-04-02T02:05:19;101899.59;;;8.41;98.76
71424;BME280;59240;51.370;-0.486;2023-04-02T02:07:49;101840.56;;;8.09;98.18
71424;BME280;59240;51.370;-0.486;2023-04-02T02:10:23;101866.53;;;8.12;94.26
71424;BME280;59240;51.370;-0.486;2023-04-02T02:12:51;101866.56;;;8.21;97.40
71424;BME280;59240;51.370;-0.486;2023-04-02T02:15:21;101898.72;;;8.40;98.32
71424;BME280;59240;51.370;-0.486;2023-04-02T02:17:48;101899.59;;;8.38;97.08
71424;BME280;59240;51.370;-0.486;2023-04-02T02:20:16;101885.66;;;8.27;98.10
71424;BME280;59240;51.370;-0.486;2023-04-02T02:22:45;101909.13;;;8.42;98.47
71424;BME280;59240;51.370;-0.486;2023-04-02T02:25:16;101915.19;;;8.38;98.24
71424;BME280;59240;51.370;-0.486;2023-04-02T02:27:49;101883.84;;;8.13;99.00
71424;BME280;59240;51.370;-0.486;2023-04-02T02:30:27;101909.91;;;8.32;100.00
71424;BME280;59240;51.370;-0.486;2023-04-02T02:35:43;101924.69;;;8.39;99.54
71424;BME280;59240;51.370;-0.486;2023-04-02T02:41:06;101906.38;;;8.17;96.80
71424;BME280;59240;51.370;-0.486;2023-04-02T02:43:45;101884.66;;;8.08;99.49
71424;BME280;59240;51.370;-0.486;2023-04-02T02:46:16;101918.56;;;8.31;99.07
71424;BME280;59240;51.370;-0.486;2023-04-02T02:48:46;101929.00;;;8.37;98.47
71424;BME280;59240;51.370;-0.486;2023-04-02T02:51:21;101922.91;;;8.32;100.00
71424;BME280;59240;51.370;-0.486;2023-04-02T02:53:51;101930.69;;;8.35;99.43
71424;BME280;59240;51.370;-0.486;2023-04-02T02:56:21;101918.53;;;8.29;98.82
71424;BME280;59240;51.370;-0.486;2023-04-02T02:58:51;101909.00;;;8.23;98.86
71424;BME280;59240;51.370;-0.486;2023-04-02T03:01:18;101961.97;;;8.50;98.56
71424;BME280;59240;51.370;-0.486;2023-04-02T03:03:46;101937.56;;;8.30;97.37
71424;BME280;59240;51.370;-0.486;2023-04-02T03:06:16;101965.41;;;8.49;99.66
71424;BME280;59240;51.370;-0.486;2023-04-02T03:08:51;101979.28;;;8.49;98.19
71424;BME280;59240;51.370;-0.486;2023-04-02T03:11:32;101960.13;;;8.34;99.79
71424;BME280;59240;51.370;-0.486;2023-04-02T03:14:12;101936.69;;;8.26;99.81
71424;BME280;59240;51.370;-0.486;2023-04-02T03:16:46;101966.13;;;8.30;96.36
71424;BME280;59240;51.370;-0.486;2023-04-02T03:19:37;101952.28;;;8.26;100.00
71424;BME280;59240;51.370;-0.486;2023-04-02T03:22:15;101996.53;;;8.41;100.00
71424;BME280;59240;51.370;-0.486;2023-04-02T03:27:17;101905.34;;;7.92;100.00
71424;BME280;59240;51.370;-0.486;2023-04-02T03:32:41;102000.00;;;8.39;97.47
71424;BME280;59240;51.370;-0.486;2023-04-02T03:35:23;102006.97;;;8.44;100.00
71424;BME280;59240;51.370;-0.486;2023-04-02T03:38:05;101957.38;;;8.14;99.91
71424;BME280;59240;51.370;-0.486;2023-04-02T03:40:38;101963.44;;;8.14;99.71
71424;BME280;59240;51.370;-0.486;2023-04-02T03:43:19;101962.63;;;8.17;100.00
71424;BME280;59240;51.370;-0.486;2023-04-02T03:45:50;101979.94;;;8.22;99.48
71424;BME280;59240;51.370;-0.486;2023-04-02T03:48:33;101985.16;;;8.26;99.78
71424;BME280;59240;51.370;-0.486;2023-04-02T03:51:09;101986.03;;;8.25;98.13
71424;BME280;59240;51.370;-0.486;2023-04-02T03:53:38;101987.66;;;8.16;98.22
71424;BME280;59240;51.370;-0.486;2023-04-02T03:56:05;101991.19;;;8.21;97.52
71424;BME280;59240;51.370;-0.486;2023-04-02T03:58:40;102002.44;;;8.22;98.49
71424;BME280;59240;51.370;-0.486;2023-04-02T04:01:28;102027.66;;;8.37;100.00
71424;BME280;59240;51.370;-0.486;2023-04-02T04:04:08;102002.38;;;8.16;100.00
71424;BME280;59240;51.370;-0.486;2023-04-02T04:06:41;102018.91;;;8.26;99.34
71424;BME280;59240;51.370;-0.486;2023-04-02T04:11:50;102049.34;;;8.37;97.43
71424;BME280;59240;51.370;-0.486;2023-04-02T04:16:52;102057.03;;;8.33;98.04
71424;BME280;59240;51.370;-0.486;2023-04-02T04:22:14;102052.66;;;8.24;99.47
71424;BME280;59240;51.370;-0.486;2023-04-02T04:24:44;102037.91;;;8.18;96.67
71424;BME280;59240;51.370;-0.486;2023-04-02T04:30:06;102078.63;;;8.26;94.90
71424;BME280;59240;51.370;-0.486;2023-04-02T04:32:55;102085.53;;;8.27;100.00
71424;BME280;59240;51.370;-0.486;2023-04-02T04:35:29;102034.25;;;7.98;98.19
71424;BME280;59240;51.370;-0.486;2023-04-02T04:38:01;102100.31;;;8.34;98.74
71424;BME280;59240;51.370;-0.486;2023-04-02T04:40:35;102094.22;;;8.30;98.30
71424;BME280;59240;51.370;-0.486;2023-04-02T04:43:06;102045.59;;;8.09;98.54
71424;BME280;59240;51.370;-0.486;2023-04-02T04:45:42;102096.06;;;8.37;98.70
71424;BME280;59240;51.370;-0.486;2023-04-02T04:53:47;102075.84;;;8.04;97.43
71424;BME280;59240;51.370;-0.486;2023-04-02T04:56:19;102099.28;;;8.13;98.26
71424;BME280;59240;51.370;-0.486;2023-04-02T04:58:54;102107.13;;;8.19;99.08
71424;BME280;59240;51.370;-0.486;2023-04-02T05:01:32;102102.75;;;8.15;98.71
71424;BME280;59240;51.370;-0.486;2023-04-02T05:07:04;102145.25;;;8.27;97.97
71424;BME280;59240;51.370;-0.486;2023-04-02T05:09:50;102140.81;;;8.13;96.94
71424;BME280;59240;51.370;-0.486;2023-04-02T05:12:36;102139.88;;;8.08;99.98
71424;BME280;59240;51.370;-0.486;2023-04-02T05:15:13;102137.28;;;8.08;99.47
71424;BME280;59240;51.370;-0.486;2023-04-02T05:17:48;102159.00;;;8.16;98.03
71424;BME280;59240;51.370;-0.486;2023-04-02T05:20:25;102140.72;;;8.06;99.76
71424;BME280;59240;51.370;-0.486;2023-04-02T05:23:33;102150.25;;;8.08;99.72
71424;BME280;59240;51.370;-0.486;2023-04-02T05:26:11;102181.53;;;8.17;96.20
71424;BME280;59240;51.370;-0.486;2023-04-02T05:28:55;102174.47;;;8.09;99.10
71424;BME280;59240;51.370;-0.486;2023-04-02T05:34:24;102174.38;;;7.98;93.94
71424;BME280;59240;51.370;-0.486;2023-04-02T05:36:57;102113.47;;;7.65;97.74
71424;BME280;59240;51.370;-0.486;2023-04-02T05:39:25;102184.84;;;8.07;97.08
71424;BME280;59240;51.370;-0.486;2023-04-02T05:42:04;102203.13;;;8.16;99.24
71424;BME280;59240;51.370;-0.486;2023-04-02T05:44:37;102207.41;;;8.11;96.04
71424;BME280;59240;51.370;-0.486;2023-04-02T05:47:28;102215.13;;;8.07;95.09
71424;BME280;59240;51.370;-0.486;2023-04-02T05:52:38;102222.13;;;8.12;99.01
71424;BME280;59240;51.370;-0.486;2023-04-02T05:58:03;102222.94;;;8.08;99.21
71424;BME280;59240;51.370;-0.486;2023-04-02T06:01:06;102167.09;;;7.66;97.02
71424;BME280;59240;51.370;-0.486;2023-04-02T06:03:54;102243.66;;;8.05;94.33
71424;BME280;59240;51.370;-0.486;2023-04-02T06:06:28;102240.25;;;8.09;96.62
71424;BME280;59240;51.370;-0.486;2023-04-02T06:09:09;102245.22;;;7.91;91.36
71424;BME280;59240;51.370;-0.486;2023-04-02T06:11:45;102231.34;;;7.89;96.52
71424;BME280;59240;51.370;-0.486;2023-04-02T06:14:14;102216.63;;;7.85;96.17
71424;BME280;59240;51.370;-0.486;2023-04-02T06:16:43;102260.13;;;8.07;97.11
71424;BME280;59240;51.370;-0.486;2023-04-02T06:19:30;102234.00;;;7.95;98.15
71424;BME280;59240;51.370;-0.486;2023-04-02T06:22:08;102248.69;;;7.91;96.86
71424;BME280;59240;51.370;-0.486;2023-04-02T06:24:39;102238.31;;;7.90;95.64
71424;BME280;59240;51.370;-0.486;2023-04-02T06:27:13;102267.09;;;8.10;97.92
71424;BME280;59240;51.370;-0.486;2023-04-02T06:29:49;102252.16;;;7.92;96.74
71424;BME280;59240;51.370;-0.486;2023-04-02T06:32:21;102263.50;;;8.02;96.66
71424;BME280;59240;51.370;-0.486;2023-04-02T06:34:49;102204.09;;;7.55;96.16
71424;BME280;59240;51.370;-0.486;2023-04-02T06:40:01;102240.47;;;7.59;91.76
71424;BME280;59240;51.370;-0.486;2023-04-02T06:42:36;102264.88;;;7.74;97.80
71424;BME280;59240;51.370;-0.486;2023-04-02T06:45:18;102311.94;;;8.00;98.07
71424;BME280;59240;51.370;-0.486;2023-04-02T06:47:50;102281.38;;;7.79;97.01
71424;BME280;59240;51.370;-0.486;2023-04-02T06:50:31;102234.16;;;7.40;97.36
71424;BME280;59240;51.370;-0.486;2023-04-02T06:53:04;102282.16;;;7.73;95.48
71424;BME280;59240;51.370;-0.486;2023-04-02T06:55:48;102334.31;;;7.91;96.25
71424;BME280;59240;51.370;-0.486;2023-04-02T06:58:17;102303.69;;;7.67;96.08
71424;BME280;59240;51.370;-0.486;2023-04-02T07:00:47;102288.03;;;7.58;96.95
71424;BME280;59240;51.370;-0.486;2023-04-02T07:03:29;102343.75;;;7.85;95.60
71424;BME280;59240;51.370;-0.486;2023-04-02T07:05:59;102281.69;;;7.41;96.58
71424;BME280;59240;51.370;-0.486;2023-04-02T07:08:29;102297.34;;;7.46;95.48
71424;BME280;59240;51.370;-0.486;2023-04-02T07:10:58;102266.69;;;7.20;96.10
71424;BME280;59240;51.370;-0.486;2023-04-02T07:13:27;102332.88;;;7.51;96.08
71424;BME280;59240;51.370;-0.486;2023-04-02T07:16:19;102280.53;;;7.21;98.16
71424;BME280;59240;51.370;-0.486;2023-04-02T07:18:47;102304.03;;;7.31;96.71
71424;BME280;59240;51.370;-0.486;2023-04-02T07:21:46;102321.53;;;7.46;96.05
71424;BME280;59240;51.370;-0.486;2023-04-02T07:24:16;102337.13;;;7.48;94.56
71424;BME280;59240;51.370;-0.486;2023-04-02T07:26:44;102303.16;;;7.31;95.19
71424;BME280;59240;51.370;-0.486;2023-04-02T07:29:25;102336.19;;;7.43;95.12
71424;BME280;59240;51.370;-0.486;2023-04-02T07:31:54;102338.06;;;7.51;92.95
71424;BME280;59240;51.370;-0.486;2023-04-02T07:34:28;102344.88;;;7.46;93.66
71424;BME280;59240;51.370;-0.486;2023-04-02T07:36:59;102356.28;;;7.56;92.71
71424;BME280;59240;51.370;-0.486;2023-04-02T07:39:31;102323.97;;;7.35;93.71
71424;BME280;59240;51.370;-0.486;2023-04-02T07:42:08;102329.97;;;7.33;93.27
71424;BME280;59240;51.370;-0.486;2023-04-02T07:44:45;102322.97;;;7.27;91.73
71424;BME280;59240;51.370;-0.486;2023-04-02T07:47:26;102328.25;;;7.33;92.81
71424;BME280;59240;51.370;-0.486;2023-04-02T07:50:12;102351.81;;;7.47;92.70
71424;BME280;59240;51.370;-0.486;2023-04-02T07:52:43;102372.63;;;7.52;91.76
71424;BME280;59240;51.370;-0.486;2023-04-02T07:55:19;102320.31;;;7.23;92.77
71424;BME280;59240;51.370;-0.486;2023-04-02T07:57:49;102391.84;;;7.64;92.75
71424;BME280;59240;51.370;-0.486;2023-04-02T08:00:54;102417.28;;;7.88;93.65
71424;BME280;59240;51.370;-0.486;2023-04-02T08:03:26;102368.38;;;7.55;92.07
71424;BME280;59240;51.370;-0.486;2023-04-02T08:06:00;102336.88;;;7.32;91.55
71424;BME280;59240;51.370;-0.486;2023-04-02T08:08:49;102344.78;;;7.40;90.93
71424;BME280;59240;51.370;-0.486;2023-04-02T08:11:23;102383.19;;;7.62;92.70
71424;BME280;59240;51.370;-0.486;2023-04-02T08:14:10;102330.88;;;7.35;91.60
71424;BME280;59240;51.370;-0.486;2023-04-02T08:16:50;102338.81;;;7.46;91.92
71424;BME280;59240;51.370;-0.486;2023-04-02T08:19:27;102381.50;;;7.66;91.95
71424;BME280;59240;51.370;-0.486;2023-04-02T08:22:36;102351.00;;;7.50;92.17
71424;BME280;59240;51.370;-0.486;2023-04-02T08:25:08;102350.06;;;7.46;92.78
71424;BME280;59240;51.370;-0.486;2023-04-02T08:27:52;102417.25;;;7.84;92.00
71424;BME280;59240;51.370;-0.486;2023-04-02T08:30:29;102362.13;;;7.44;93.83
71424;BME280;59240;51.370;-0.486;2023-04-02T08:33:03;102361.31;;;7.47;96.39
71424;BME280;59240;51.370;-0.486;2023-04-02T08:35:47;102374.44;;;7.57;95.67
71424;BME280;59240;51.370;-0.486;2023-04-02T08:38:22;102383.22;;;7.65;91.75
71424;BME280;59240;51.370;-0.486;2023-04-02T08:40:54;102449.50;;;8.03;91.34
71424;BME280;59240;51.370;-0.486;2023-04-02T08:44:17;102458.16;;;8.02;91.39
71424;BME280;59240;51.370;-0.486;2023-04-02T08:47:01;102424.94;;;7.78;93.47
71424;BME280;59240;51.370;-0.486;2023-04-02T08:49:54;102410.09;;;7.69;95.39
71424;BME280;59240;51.370;-0.486;2023-04-02T08:52:29;102399.56;;;7.61;93.48
71424;BME280;59240;51.370;-0.486;2023-04-02T08:55:59;102499.13;;;8.21;86.96
71424;BME280;59240;51.370;-0.486;2023-04-02T08:58:41;102489.41;;;8.09;84.87
71424;BME280;59240;51.370;-0.486;2023-04-02T09:03:49;102444.06;;;7.86;89.02
71424;BME280;59240;51.370;-0.486;2023-04-02T09:06:29;102466.69;;;7.93;91.06
71424;BME280;59240;51.370;-0.486;2023-04-02T09:08:57;102526.03;;;8.25;90.82
71424;BME280;59240;51.370;-0.486;2023-04-02T09:11:34;102500.66;;;8.08;91.06
71424;BME280;59240;51.370;-0.486;2023-04-02T09:14:18;102443.94;;;7.77;91.36
71424;BME280;59240;51.370;-0.486;2023-04-02T09:17:02;102443.97;;;7.80;90.70
71424;BME280;59240;51.370;-0.486;2023-04-02T09:19:39;102491.03;;;8.01;90.96
71424;BME280;59240;51.370;-0.486;2023-04-02T09:22:30;102512.03;;;8.16;94.26
71424;BME280;59240;51.370;-0.486;2023-04-02T09:25:23;102498.97;;;8.10;92.62
71424;BME280;59240;51.370;-0.486;2023-04-02T09:28:01;102443.13;;;7.81;93.27
71424;BME280;59240;51.370;-0.486;2023-04-02T09:33:01;102520.94;;;8.31;92.15
71424;BME280;59240;51.370;-0.486;2023-04-02T09:35:37;102478.88;;;7.97;86.96
71424;BME280;59240;51.370;-0.486;2023-04-02T09:39:41;102561.81;;;8.42;90.04
71424;BME280;59240;51.370;-0.486;2023-04-02T09:41:52;102497.94;;;8.02;90.30
71424;BME280;59240;51.370;-0.486;2023-04-02T09:44:48;102544.22;;;8.28;95.29
71424;BME280;59240;51.370;-0.486;2023-04-02T09:47:25;102570.41;;;8.38;90.82
71424;BME280;59240;51.370;-0.486;2023-04-02T09:50:31;102579.19;;;8.45;95.17
71424;BME280;59240;51.370;-0.486;2023-04-02T09:56:17;102497.94;;;8.02;94.10
71424;BME280;59240;51.370;-0.486;2023-04-02T09:59:22;102519.81;;;8.16;96.77
71424;BME280;59240;51.370;-0.486;2023-04-02T10:09:32;102608.31;;;8.83;94.94
71424;BME280;59240;51.370;-0.486;2023-04-02T10:12:59;102604.91;;;8.86;88.99
71424;BME280;59240;51.370;-0.486;2023-04-02T10:16:18;102581.38;;;8.78;90.23
71424;BME280;59240;51.370;-0.486;2023-04-02T10:19:28;102601.56;;;8.96;94.70
71424;BME280;59240;51.370;-0.486;2023-04-02T10:22:31;102556.06;;;8.63;94.30
71424;BME280;59240;51.370;-0.486;2023-04-02T10:25:30;102535.13;;;8.53;92.24
71424;BME280;59240;51.370;-0.486;2023-04-02T10:31:49;102581.53;;;8.89;94.30
71424;BME280;59240;51.370;-0.486;2023-04-02T10:47:58;102626.97;;;9.17;90.27
71424;BME280;59240;51.370;-0.486;2023-04-02T10:54:58;102547.56;;;8.73;91.27
71424;BME280;59240;51.370;-0.486;2023-04-02T10:57:55;102650.53;;;9.27;89.24
71424;BME280;59240;51.370;-0.486;2023-04-02T11:01:18;102585.97;;;8.96;91.66
71424;BME280;59240;51.370;-0.486;2023-04-02T11:06:27;102643.72;;;9.36;87.92
71424;BME280;59240;51.370;-0.486;2023-04-02T11:09:03;102582.59;;;9.03;90.78
71424;BME280;59240;51.370;-0.486;2023-04-02T11:11:49;102596.69;;;9.20;89.09
71424;BME280;59240;51.370;-0.486;2023-04-02T11:15:03;102628.97;;;9.38;92.50
71424;BME280;59240;51.370;-0.486;2023-04-02T11:18:02;102565.25;;;9.00;87.85
71424;BME280;59240;51.370;-0.486;2023-04-02T11:24:00;102616.56;;;9.15;76.51
71424;BME280;59240;51.370;-0.486;2023-04-02T11:36:56;102657.94;;;9.65;90.47
71424;BME280;59240;51.370;-0.486;2023-04-02T11:47:17;102617.94;;;9.54;81.73
71424;BME280;59240;51.370;-0.486;2023-04-02T11:50:44;102589.94;;;9.35;86.66
71424;BME280;59240;51.370;-0.486;2023-04-02T11:54:19;102610.75;;;9.36;81.06
71424;BME280;59240;51.370;-0.486;2023-04-02T12:00:49;102609.22;;;9.52;88.65
71424;BME280;59240;51.370;-0.486;2023-04-02T12:09:54;102701.06;;;10.21;84.37
71424;BME280;59240;51.370;-0.486;2023-04-02T12:12:36;102609.50;;;9.76;86.48
71424;BME280;59240;51.370;-0.486;2023-04-02T12:16:13;102612.09;;;9.78;81.12
71424;BME280;59240;51.370;-0.486;2023-04-02T12:19:25;102603.38;;;9.74;83.07
71424;BME280;59240;51.370;-0.486;2023-04-02T12:21:52;102627.88;;;9.92;83.50
71424;BME280;59240;51.370;-0.486;2023-04-02T12:24:22;102672.41;;;10.16;84.13
71424;BME280;59240;51.370;-0.486;2023-04-02T12:27:16;102710.84;;;10.40;74.08
71424;BME280;59240;51.370;-0.486;2023-04-02T12:30:19;102636.59;;;9.95;76.21
71424;BME280;59240;51.370;-0.486;2023-04-02T12:32:50;102665.41;;;10.12;83.82
71424;BME280;59240;51.370;-0.486;2023-04-02T12:39:17;102627.94;;;10.01;81.30
71424;BME280;59240;51.370;-0.486;2023-04-02T12:45:54;102727.53;;;10.57;84.67
71424;BME280;59240;51.370;-0.486;2023-04-02T12:53:00;102660.22;;;10.15;85.02
71424;BME280;59240;51.370;-0.486;2023-04-02T12:55:27;102739.72;;;10.61;82.82
71424;BME280;59240;51.370;-0.486;2023-04-02T12:57:59;102638.41;;;10.02;81.90
71424;BME280;59240;51.370;-0.486;2023-04-02T13:00:47;102667.16;;;10.14;83.26
71424;BME280;59240;51.370;-0.486;2023-04-02T13:04:11;102735.41;;;10.65;80.33
71424;BME280;59240;51.370;-0.486;2023-04-02T13:06:49;102711.81;;;10.50;85.99
71424;BME280;59240;51.370;-0.486;2023-04-02T13:12:40;102716.19;;;10.54;82.58
71424;BME280;59240;51.370;-0.486;2023-04-02T13:15:39;102645.44;;;10.11;86.55
71424;BME280;59240;51.370;-0.486;2023-04-02T13:23:34;102672.41;;;10.19;81.47
71424;BME280;59240;51.370;-0.486;2023-04-02T13:31:43;102695.34;;;10.54;86.64
71424;BME280;59240;51.370;-0.486;2023-04-02T13:35:03;102665.75;;;10.46;72.44
71424;BME280;59240;51.370;-0.486;2023-04-02T13:37:56;102676.28;;;10.58;81.36
71424;BME280;59240;51.370;-0.486;2023-04-02T13:43:38;102652.06;;;10.74;77.19
71424;BME280;59240;51.370;-0.486;2023-04-02T13:46:12;102731.50;;;11.22;75.45
71424;BME280;59240;51.370;-0.486;2023-04-02T13:49:00;102694.06;;;11.14;76.40
71424;BME280;59240;51.370;-0.486;2023-04-02T13:51:47;102711.66;;;11.48;73.64
71424;BME280;59240;51.370;-0.486;2023-04-02T13:54:48;102722.31;;;11.91;80.11
71424;BME280;59240;51.370;-0.486;2023-04-02T13:58:02;102663.13;;;11.99;77.40
71424;BME280;59240;51.370;-0.486;2023-04-02T14:00:49;102712.00;;;12.54;69.59
71424;BME280;59240;51.370;-0.486;2023-04-02T14:04:11;102732.91;;;12.75;75.47
71424;BME280;59240;51.370;-0.486;2023-04-02T14:07:32;102734.69;;;12.93;77.07
71424;BME280;59240;51.370;-0.486;2023-04-02T14:13:52;102751.19;;;13.53;76.76
71424;BME280;59240;51.370;-0.486;2023-04-02T14:19:47;102747.56;;;13.88;69.79
71424;BME280;59240;51.370;-0.486;2023-04-02T14:22:47;102737.06;;;13.94;69.85
71424;BME280;59240;51.370;-0.486;2023-04-02T14:28:45;102746.34;;;14.56;79.72
71424;BME280;59240;51.370;-0.486;2023-04-02T14:32:20;102735.72;;;14.71;61.74
71424;BME280;59240;51.370;-0.486;2023-04-02T14:43:21;102739.50;;;15.38;64.84
71424;BME280;59240;51.370;-0.486;2023-04-02T14:48:42;102745.56;;;15.45;65.82
71424;BME280;59240;51.370;-0.486;2023-04-02T14:51:33;102708.91;;;15.32;68.99
71424;BME280;59240;51.370;-0.486;2023-04-02T14:54:07;102713.94;;;15.51;61.58
71424;BME280;59240;51.370;-0.486;2023-04-02T15:03:17;102741.22;;;16.13;67.55
71424;BME280;59240;51.370;-0.486;2023-04-02T15:06:01;102681.09;;;15.89;62.38
71424;BME280;59240;51.370;-0.486;2023-04-02T15:08:38;102670.44;;;15.98;67.60
71424;BME280;59240;51.370;-0.486;2023-04-02T15:11:34;102727.56;;;16.47;66.53
71424;BME280;59240;51.370;-0.486;2023-04-02T15:14:10;102728.53;;;16.39;61.59
71424;BME280;59240;51.370;-0.486;2023-04-02T15:16:44;102666.88;;;16.02;58.01
71424;BME280;59240;51.370;-0.486;2023-04-02T15:19:23;102690.34;;;16.16;59.82
71424;BME280;59240;51.370;-0.486;2023-04-02T15:22:31;102641.59;;;15.95;55.74
71424;BME280;59240;51.370;-0.486;2023-04-02T15:28:01;102705.69;;;16.45;63.07
71424;BME280;59240;51.370;-0.486;2023-04-02T15:30:43;102654.47;;;16.11;57.09
71424;BME280;59240;51.370;-0.486;2023-04-02T16:00:18;102653.56;;;16.12;55.83
71424;BME280;59240;51.370;-0.486;2023-04-02T16:06:09;102708.34;;;16.43;55.77
71424;BME280;59240;51.370;-0.486;2023-04-02T16:11:45;102646.78;;;15.99;53.50
71424;BME280;59240;51.370;-0.486;2023-04-02T16:17:26;102704.22;;;16.25;58.52
71424;BME280;59240;51.370;-0.486;2023-04-02T16:20:29;102702.53;;;16.21;56.61
71424;BME280;59240;51.370;-0.486;2023-04-02T16:23:11;102690.50;;;16.05;50.93
71424;BME280;59240;51.370;-0.486;2023-04-02T16:28:45;102660.28;;;15.73;52.34
71424;BME280;59240;51.370;-0.486;2023-04-02T16:41:05;102726.97;;;15.62;51.69
71424;BME280;59240;51.370;-0.486;2023-04-02T16:49:39;102716.06;;;15.18;48.58
71424;BME280;59240;51.370;-0.486;2023-04-02T17:01:51;102746.28;;;14.65;50.21
71424;BME280;59240;51.370;-0.486;2023-04-02T17:11:08;102749.13;;;14.24;46.83
71424;BME280;59240;51.370;-0.486;2023-04-02T17:13:48;102735.22;;;14.16;51.91
71424;BME280;59240;51.370;-0.486;2023-04-02T17:17:22;102725.66;;;14.07;53.16
71424;BME280;59240;51.370;-0.486;2023-04-02T17:19:55;102673.41;;;13.71;51.41
71424;BME280;59240;51.370;-0.486;2023-04-02T17:22:34;102694.38;;;13.69;52.15
71424;BME280;59240;51.370;-0.486;2023-04-02T17:25:11;102727.53;;;13.72;50.65
71424;BME280;59240;51.370;-0.486;2023-04-02T17:28:17;102761.63;;;13.73;49.93
71424;BME280;59240;51.370;-0.486;2023-04-02T17:31:25;102742.50;;;13.33;52.06
71424;BME280;59240;51.370;-0.486;2023-04-02T17:33:56;102719.84;;;13.01;50.74
71424;BME280;59240;51.370;-0.486;2023-04-02T17:50:57;102789.53;;;12.46;52.04
71424;BME280;59240;51.370;-0.486;2023-04-02T17:54:17;102710.09;;;11.84;52.85
71424;BME280;59240;51.370;-0.486;2023-04-02T18:11:50;102770.72;;;11.33;54.53
71424;BME280;59240;51.370;-0.486;2023-04-02T18:15:01;102822.19;;;11.54;54.56
71424;BME280;59240;51.370;-0.486;2023-04-02T18:28:03;102835.75;;;11.11;55.76
71424;BME280;59240;51.370;-0.486;2023-04-02T18:49:40;102875.06;;;10.45;57.12
71424;BME280;59240;51.370;-0.486;2023-04-02T18:52:33;102780.44;;;9.80;56.90
71424;BME280;59240;51.370;-0.486;2023-04-02T18:55:21;102837.19;;;10.06;57.59
71424;BME280;59240;51.370;-0.486;2023-04-02T19:09:34;102838.34;;;9.63;58.44
71424;BME280;59240;51.370;-0.486;2023-04-02T19:12:32;102891.50;;;9.80;57.76
71424;BME280;59240;51.370;-0.486;2023-04-02T19:15:22;102893.13;;;9.73;59.38
71424;BME280;59240;51.370;-0.486;2023-04-02T19:40:30;102901.28;;;8.92;59.47
71424;BME280;59240;51.370;-0.486;2023-04-02T19:46:21;102904.28;;;8.66;60.71
71424;BME280;59240;51.370;-0.486;2023-04-02T19:50:29;102852.38;;;8.29;60.35
71424;BME280;59240;51.370;-0.486;2023-04-02T19:54:02;102832.06;;;8.09;60.58
71424;BME280;59240;51.370;-0.486;2023-04-02T19:58:36;102867.00;;;8.23;61.05
71424;BME280;59240;51.370;-0.486;2023-04-02T20:01:41;102865.91;;;8.14;62.16
71424;BME280;59240;51.370;-0.486;2023-04-02T20:05:10;102854.38;;;8.01;61.27
71424;BME280;59240;51.370;-0.486;2023-04-02T20:08:31;102881.22;;;8.02;61.39
71424;BME280;59240;51.370;-0.486;2023-04-02T20:11:21;102859.91;;;7.77;60.60
71424;BME280;59240;51.370;-0.486;2023-04-02T20:19:12;102951.69;;;8.18;63.39